sensor_id;sensor_type;location;lat;lon;timestamp;temperature;humidity
25504;DHT22;13410;52.114;5.718;2022-12-10T00:01:52;4.50;99.90
25504;DHT22;13410;52.114;5.718;2022-12-10T00:04:18;4.60;99.90
25504;DHT22;13410;52.114;5.718;2022-12-10T00:06:47;4.50;99.90
25504;DHT22;13410;52.114;5.718;2022-12-10T00:09:16;4.60;99.90
25504;DHT22;13410;52.114;5.718;2022-12-10T00:11:42;4.60;99.90
25504;DHT22;13410;52.114;5.718;2022-12-10T00:14:09;4.60;99.90
25504;DHT22;13410;52.114;5.718;2022-12-10T00:16:36;4.50;99.90
25504;DHT22;13410;52.114;5.718;2022-12-10T00:19:03;4.60;99.90
25504;DHT22;13410;52.114;5.718;2022-12-10T00:21:31;4.50;99.90
25504;DHT22;13410;52.114;5.718;2022-12-10T00:23:58;4.50;99.90
25504;DHT22;13410;52.114;5.718;2022-12-10T00:26:35;4.60;99.90
25504;DHT22;13410;52.114;5.718;2022-12-10T00:29:04;4.50;99.90
25504;DHT22;13410;52.114;5.718;2022-12-10T00:31:34;4.60;99.90
25504;DHT22;13410;52.114;5.718;2022-12-10T00:34:03;4.60;99.90
25504;DHT22;13410;52.114;5.718;2022-12-10T00:36:41;4.50;99.90
25504;DHT22;13410;52.114;5.718;2022-12-10T00:39:08;4.50;99.90
25504;DHT22;13410;52.114;5.718;2022-12-10T00:41:34;4.40;99.90
25504;DHT22;13410;52.114;5.718;2022-12-10T00:44:00;4.50;99.90
25504;DHT22;13410;52.114;5.718;2022-12-10T00:46:26;4.40;99.90
25504;DHT22;13410;52.114;5.718;2022-12-10T00:48:52;4.40;99.90
25504;DHT22;13410;52.114;5.718;2022-12-10T00:51:23;4.50;99.90
25504;DHT22;13410;52.114;5.718;2022-12-10T00:53:53;4.50;99.90
25504;DHT22;13410;52.114;5.718;2022-12-10T00:56:24;4.30;99.90
25504;DHT22;13410;52.114;5.718;2022-12-10T00:58:51;4.30;99.90
25504;DHT22;13410;52.114;5.718;2022-12-10T01:01:25;4.30;99.90
25504;DHT22;13410;52.114;5.718;2022-12-10T01:03:53;4.20;99.90
25504;DHT22;13410;52.114;5.718;2022-12-10T01:06:22;4.10;99.90
25504;DHT22;13410;52.114;5.718;2022-12-10T01:08:49;4.10;99.90
25504;DHT22;13410;52.114;5.718;2022-12-10T01:11:17;4.00;99.90
25504;DHT22;13410;52.114;5.718;2022-12-10T01:13:44;4.10;99.90
25504;DHT22;13410;52.114;5.718;2022-12-10T01:16:12;4.10;99.90
25504;DHT22;13410;52.114;5.718;2022-12-10T01:18:39;4.10;99.90
25504;DHT22;13410;52.114;5.718;2022-12-10T01:21:07;3.90;99.90
25504;DHT22;13410;52.114;5.718;2022-12-10T01:23:34;3.90;99.90
25504;DHT22;13410;52.114;5.718;2022-12-10T01:26:04;4.00;99.90
25504;DHT22;13410;52.114;5.718;2022-12-10T01:28:34;3.70;99.90
25504;DHT22;13410;52.114;5.718;2022-12-10T01:31:11;3.80;99.90
25504;DHT22;13410;52.114;5.718;2022-12-10T01:33:38;3.60;99.90
25504;DHT22;13410;52.114;5.718;2022-12-10T01:36:15;3.60;99.90
25504;DHT22;13410;52.114;5.718;2022-12-10T01:38:42;3.60;99.90
25504;DHT22;13410;52.114;5.718;2022-12-10T01:41:14;3.80;99.90
25504;DHT22;13410;52.114;5.718;2022-12-10T01:46:31;3.80;99.90
25504;DHT22;13410;52.114;5.718;2022-12-10T01:48:59;3.70;99.90
25504;DHT22;13410;52.114;5.718;2022-12-10T01:51:29;3.70;99.90
25504;DHT22;13410;52.114;5.718;2022-12-10T01:53:55;3.80;99.90
25504;DHT22;13410;52.114;5.718;2022-12-10T01:56:22;3.70;99.90
25504;DHT22;13410;52.114;5.718;2022-12-10T01:58:50;3.60;99.90
25504;DHT22;13410;52.114;5.718;2022-12-10T02:03:59;3.70;99.90
25504;DHT22;13410;52.114;5.718;2022-12-10T02:06:58;3.70;99.90
25504;DHT22;13410;52.114;5.718;2022-12-10T02:09:55;3.70;99.90
25504;DHT22;13410;52.114;5.718;2022-12-10T02:12:30;3.60;99.90
25504;DHT22;13410;52.114;5.718;2022-12-10T02:15:07;3.70;99.90
25504;DHT22;13410;52.114;5.718;2022-12-10T02:18:03;3.70;99.90
25504;DHT22;13410;52.114;5.718;2022-12-10T02:20:34;3.60;99.90
25504;DHT22;13410;52.114;5.718;2022-12-10T02:23:11;3.50;99.90
25504;DHT22;13410;52.114;5.718;2022-12-10T02:25:50;3.50;99.90
25504;DHT22;13410;52.114;5.718;2022-12-10T02:28:46;3.40;99.90
25504;DHT22;13410;52.114;5.718;2022-12-10T02:31:25;3.60;99.90
25504;DHT22;13410;52.114;5.718;2022-12-10T02:33:57;3.50;99.90
25504;DHT22;13410;52.114;5.718;2022-12-10T02:36:25;3.40;99.90
25504;DHT22;13410;52.114;5.718;2022-12-10T02:38:52;3.30;99.90
25504;DHT22;13410;52.114;5.718;2022-12-10T02:41:27;3.20;99.90
25504;DHT22;13410;52.114;5.718;2022-12-10T02:43:54;3.30;99.90
25504;DHT22;13410;52.114;5.718;2022-12-10T02:46:22;3.20;99.90
25504;DHT22;13410;52.114;5.718;2022-12-10T02:48:50;3.20;99.90
25504;DHT22;13410;52.114;5.718;2022-12-10T02:51:16;3.10;99.90
25504;DHT22;13410;52.114;5.718;2022-12-10T02:53:43;3.30;99.90
25504;DHT22;13410;52.114;5.718;2022-12-10T02:56:36;3.30;99.90
25504;DHT22;13410;52.114;5.718;2022-12-10T02:59:19;3.30;99.90
25504;DHT22;13410;52.114;5.718;2022-12-10T03:02:09;3.30;99.90
25504;DHT22;13410;52.114;5.718;2022-12-10T03:04:46;3.50;99.90
25504;DHT22;13410;52.114;5.718;2022-12-10T03:07:32;3.70;99.90
25504;DHT22;13410;52.114;5.718;2022-12-10T03:10:06;3.40;99.90
25504;DHT22;13410;52.114;5.718;2022-12-10T03:12:37;3.40;99.90
25504;DHT22;13410;52.114;5.718;2022-12-10T03:15:08;3.40;99.90
25504;DHT22;13410;52.114;5.718;2022-12-10T03:17:34;3.50;99.90
25504;DHT22;13410;52.114;5.718;2022-12-10T03:20:02;3.70;99.90
25504;DHT22;13410;52.114;5.718;2022-12-10T03:22:29;3.80;99.90
25504;DHT22;13410;52.114;5.718;2022-12-10T03:24:56;3.70;99.90
25504;DHT22;13410;52.114;5.718;2022-12-10T03:27:23;3.80;99.90
25504;DHT22;13410;52.114;5.718;2022-12-10T03:29:52;3.70;99.90
25504;DHT22;13410;52.114;5.718;2022-12-10T03:32:24;3.90;99.90
25504;DHT22;13410;52.114;5.718;2022-12-10T03:34:52;4.00;99.90
25504;DHT22;13410;52.114;5.718;2022-12-10T03:37:18;4.00;99.90
25504;DHT22;13410;52.114;5.718;2022-12-10T03:39:45;3.90;99.90
25504;DHT22;13410;52.114;5.718;2022-12-10T03:42:11;4.00;99.90
25504;DHT22;13410;52.114;5.718;2022-12-10T03:44:38;4.20;99.90
25504;DHT22;13410;52.114;5.718;2022-12-10T03:47:06;4.30;99.90
25504;DHT22;13410;52.114;5.718;2022-12-10T03:49:33;4.40;99.90
25504;DHT22;13410;52.114;5.718;2022-12-10T03:51:59;4.40;99.90
25504;DHT22;13410;52.114;5.718;2022-12-10T03:54:25;4.40;99.90
25504;DHT22;13410;52.114;5.718;2022-12-10T03:56:51;4.40;99.90
25504;DHT22;13410;52.114;5.718;2022-12-10T03:59:16;4.60;99.90
25504;DHT22;13410;52.114;5.718;2022-12-10T04:01:42;4.60;99.90
25504;DHT22;13410;52.114;5.718;2022-12-10T04:04:09;4.50;99.90
25504;DHT22;13410;52.114;5.718;2022-12-10T04:06:37;4.30;99.90
25504;DHT22;13410;52.114;5.718;2022-12-10T04:09:03;4.50;99.90
25504;DHT22;13410;52.114;5.718;2022-12-10T04:11:29;4.60;99.90
25504;DHT22;13410;52.114;5.718;2022-12-10T04:13:54;4.70;99.90
25504;DHT22;13410;52.114;5.718;2022-12-10T04:16:39;4.60;99.90
25504;DHT22;13410;52.114;5.718;2022-12-10T04:19:07;4.70;99.90
25504;DHT22;13410;52.114;5.718;2022-12-10T04:21:35;4.70;99.90
25504;DHT22;13410;52.114;5.718;2022-12-10T04:24:24;4.70;99.90
25504;DHT22;13410;52.114;5.718;2022-12-10T04:27:11;4.70;99.90
25504;DHT22;13410;52.114;5.718;2022-12-10T04:29:38;4.60;99.90
25504;DHT22;13410;52.114;5.718;2022-12-10T04:32:04;4.70;99.90
25504;DHT22;13410;52.114;5.718;2022-12-10T04:34:30;4.70;99.90
25504;DHT22;13410;52.114;5.718;2022-12-10T04:36:57;4.70;99.90
25504;DHT22;13410;52.114;5.718;2022-12-10T04:39:23;4.70;99.90
25504;DHT22;13410;52.114;5.718;2022-12-10T04:41:50;4.70;99.90
25504;DHT22;13410;52.114;5.718;2022-12-10T04:44:19;4.70;99.90
25504;DHT22;13410;52.114;5.718;2022-12-10T04:46:45;4.80;99.90
25504;DHT22;13410;52.114;5.718;2022-12-10T04:49:11;4.70;99.90
25504;DHT22;13410;52.114;5.718;2022-12-10T04:51:37;4.70;99.90
25504;DHT22;13410;52.114;5.718;2022-12-10T04:54:04;4.80;99.90
25504;DHT22;13410;52.114;5.718;2022-12-10T04:56:30;4.90;99.90
25504;DHT22;13410;52.114;5.718;2022-12-10T04:58:56;4.90;99.90
25504;DHT22;13410;52.114;5.718;2022-12-10T05:01:26;4.90;99.90
25504;DHT22;13410;52.114;5.718;2022-12-10T05:03:52;5.00;99.90
25504;DHT22;13410;52.114;5.718;2022-12-10T05:06:18;4.90;99.90
25504;DHT22;13410;52.114;5.718;2022-12-10T05:08:47;4.80;99.90
25504;DHT22;13410;52.114;5.718;2022-12-10T05:11:17;5.00;99.90
25504;DHT22;13410;52.114;5.718;2022-12-10T05:13:43;4.80;99.90
25504;DHT22;13410;52.114;5.718;2022-12-10T05:16:11;5.00;99.90
25504;DHT22;13410;52.114;5.718;2022-12-10T05:18:38;4.90;99.90
25504;DHT22;13410;52.114;5.718;2022-12-10T05:21:12;4.90;99.90
25504;DHT22;13410;52.114;5.718;2022-12-10T05:23:40;4.90;99.90
25504;DHT22;13410;52.114;5.718;2022-12-10T05:26:09;4.90;99.90
25504;DHT22;13410;52.114;5.718;2022-12-10T05:28:37;4.90;99.90
25504;DHT22;13410;52.114;5.718;2022-12-10T05:31:03;5.00;99.90
25504;DHT22;13410;52.114;5.718;2022-12-10T05:33:30;4.90;99.90
25504;DHT22;13410;52.114;5.718;2022-12-10T05:35:59;5.00;99.90
25504;DHT22;13410;52.114;5.718;2022-12-10T05:38:26;4.90;99.90
25504;DHT22;13410;52.114;5.718;2022-12-10T05:40:55;4.90;99.90
25504;DHT22;13410;52.114;5.718;2022-12-10T05:43:21;4.90;99.90
25504;DHT22;13410;52.114;5.718;2022-12-10T05:45:49;4.60;99.90
25504;DHT22;13410;52.114;5.718;2022-12-10T05:48:18;4.80;99.90
25504;DHT22;13410;52.114;5.718;2022-12-10T05:50:47;4.80;99.90
25504;DHT22;13410;52.114;5.718;2022-12-10T05:53:12;4.80;99.90
25504;DHT22;13410;52.114;5.718;2022-12-10T05:55:42;4.90;99.90
25504;DHT22;13410;52.114;5.718;2022-12-10T05:58:08;4.90;99.90
25504;DHT22;13410;52.114;5.718;2022-12-10T06:00:33;4.80;99.90
25504;DHT22;13410;52.114;5.718;2022-12-10T06:03:02;4.90;99.90
25504;DHT22;13410;52.114;5.718;2022-12-10T06:05:28;4.90;99.90
25504;DHT22;13410;52.114;5.718;2022-12-10T06:07:53;4.80;99.90
25504;DHT22;13410;52.114;5.718;2022-12-10T06:10:19;5.00;99.90
25504;DHT22;13410;52.114;5.718;2022-12-10T06:12:48;5.00;99.90
25504;DHT22;13410;52.114;5.718;2022-12-10T06:15:13;5.00;99.90
25504;DHT22;13410;52.114;5.718;2022-12-10T06:17:39;4.90;99.90
25504;DHT22;13410;52.114;5.718;2022-12-10T06:20:08;4.80;99.90
25504;DHT22;13410;52.114;5.718;2022-12-10T06:22:34;4.70;99.90
25504;DHT22;13410;52.114;5.718;2022-12-10T06:25:00;4.70;99.90
25504;DHT22;13410;52.114;5.718;2022-12-10T06:27:29;4.50;99.90
25504;DHT22;13410;52.114;5.718;2022-12-10T06:29:55;4.60;99.90
25504;DHT22;13410;52.114;5.718;2022-12-10T06:32:21;4.70;99.90
25504;DHT22;13410;52.114;5.718;2022-12-10T06:34:49;4.70;99.90
25504;DHT22;13410;52.114;5.718;2022-12-10T06:37:15;4.60;99.90
25504;DHT22;13410;52.114;5.718;2022-12-10T06:39:52;4.50;99.90
25504;DHT22;13410;52.114;5.718;2022-12-10T06:42:20;4.70;99.90
25504;DHT22;13410;52.114;5.718;2022-12-10T06:44:46;4.60;99.90
25504;DHT22;13410;52.114;5.718;2022-12-10T06:47:13;4.70;99.90
25504;DHT22;13410;52.114;5.718;2022-12-10T06:49:39;4.60;99.90
25504;DHT22;13410;52.114;5.718;2022-12-10T06:52:05;4.50;99.90
25504;DHT22;13410;52.114;5.718;2022-12-10T06:54:33;4.50;99.90
25504;DHT22;13410;52.114;5.718;2022-12-10T06:56:59;4.40;99.90
25504;DHT22;13410;52.114;5.718;2022-12-10T06:59:27;4.60;99.90
25504;DHT22;13410;52.114;5.718;2022-12-10T07:01:53;4.70;99.90
25504;DHT22;13410;52.114;5.718;2022-12-10T07:04:21;4.60;99.90
25504;DHT22;13410;52.114;5.718;2022-12-10T07:06:47;4.70;99.90
25504;DHT22;13410;52.114;5.718;2022-12-10T07:09:13;4.90;99.90
25504;DHT22;13410;52.114;5.718;2022-12-10T07:11:50;4.90;99.90
25504;DHT22;13410;52.114;5.718;2022-12-10T07:14:18;4.80;99.90
25504;DHT22;13410;52.114;5.718;2022-12-10T07:16:46;5.00;99.90
25504;DHT22;13410;52.114;5.718;2022-12-10T07:19:12;4.80;99.90
25504;DHT22;13410;52.114;5.718;2022-12-10T07:21:42;4.80;99.90
25504;DHT22;13410;52.114;5.718;2022-12-10T07:24:17;4.70;99.90
25504;DHT22;13410;52.114;5.718;2022-12-10T07:26:44;4.80;99.90
25504;DHT22;13410;52.114;5.718;2022-12-10T07:29:18;4.90;99.90
25504;DHT22;13410;52.114;5.718;2022-12-10T07:31:50;5.00;99.90
25504;DHT22;13410;52.114;5.718;2022-12-10T07:34:17;5.10;99.90
25504;DHT22;13410;52.114;5.718;2022-12-10T07:36:45;5.00;99.90
25504;DHT22;13410;52.114;5.718;2022-12-10T07:39:13;5.10;99.90
25504;DHT22;13410;52.114;5.718;2022-12-10T07:41:49;5.00;99.90
25504;DHT22;13410;52.114;5.718;2022-12-10T07:44:24;5.10;99.90
25504;DHT22;13410;52.114;5.718;2022-12-10T07:46:51;5.00;99.90
25504;DHT22;13410;52.114;5.718;2022-12-10T07:49:19;5.10;99.90
25504;DHT22;13410;52.114;5.718;2022-12-10T07:52:03;5.00;99.90
25504;DHT22;13410;52.114;5.718;2022-12-10T07:54:34;4.80;99.90
25504;DHT22;13410;52.114;5.718;2022-12-10T07:57:02;4.90;99.90
25504;DHT22;13410;52.114;5.718;2022-12-10T07:59:28;4.80;99.90
25504;DHT22;13410;52.114;5.718;2022-12-10T08:01:56;4.90;99.90
25504;DHT22;13410;52.114;5.718;2022-12-10T08:04:29;5.00;99.90
25504;DHT22;13410;52.114;5.718;2022-12-10T08:06:58;5.00;99.90
25504;DHT22;13410;52.114;5.718;2022-12-10T08:09:24;5.00;99.90
25504;DHT22;13410;52.114;5.718;2022-12-10T08:11:49;5.00;99.90
25504;DHT22;13410;52.114;5.718;2022-12-10T08:14:23;4.90;99.90
25504;DHT22;13410;52.114;5.718;2022-12-10T08:16:59;4.90;99.90
25504;DHT22;13410;52.114;5.718;2022-12-10T08:19:27;5.00;99.90
25504;DHT22;13410;52.114;5.718;2022-12-10T08:21:55;4.90;99.90
25504;DHT22;13410;52.114;5.718;2022-12-10T08:24:28;5.30;99.90
25504;DHT22;13410;52.114;5.718;2022-12-10T08:27:01;5.10;99.90
25504;DHT22;13410;52.114;5.718;2022-12-10T08:29:34;5.00;99.90
25504;DHT22;13410;52.114;5.718;2022-12-10T08:32:00;5.30;99.90
25504;DHT22;13410;52.114;5.718;2022-12-10T08:34:28;5.10;99.90
25504;DHT22;13410;52.114;5.718;2022-12-10T08:37:03;5.00;99.90
25504;DHT22;13410;52.114;5.718;2022-12-10T08:39:34;5.20;99.90
25504;DHT22;13410;52.114;5.718;2022-12-10T08:42:02;5.20;99.90
25504;DHT22;13410;52.114;5.718;2022-12-10T08:44:39;5.30;99.90
25504;DHT22;13410;52.114;5.718;2022-12-10T08:47:12;5.30;99.90
25504;DHT22;13410;52.114;5.718;2022-12-10T08:49:47;5.20;99.90
25504;DHT22;13410;52.114;5.718;2022-12-10T08:52:23;5.10;99.90
25504;DHT22;13410;52.114;5.718;2022-12-10T08:54:52;5.10;99.90
25504;DHT22;13410;52.114;5.718;2022-12-10T08:57:22;5.10;99.90
25504;DHT22;13410;52.114;5.718;2022-12-10T08:59:51;4.80;99.90
25504;DHT22;13410;52.114;5.718;2022-12-10T09:02:23;4.80;99.90
25504;DHT22;13410;52.114;5.718;2022-12-10T09:04:50;4.90;99.90
25504;DHT22;13410;52.114;5.718;2022-12-10T09:07:18;4.90;99.90
25504;DHT22;13410;52.114;5.718;2022-12-10T09:09:47;4.90;99.90
25504;DHT22;13410;52.114;5.718;2022-12-10T09:12:15;4.90;99.90
25504;DHT22;13410;52.114;5.718;2022-12-10T09:14:47;5.00;99.90
25504;DHT22;13410;52.114;5.718;2022-12-10T09:17:18;5.10;99.90
25504;DHT22;13410;52.114;5.718;2022-12-10T09:19:54;5.10;99.90
25504;DHT22;13410;52.114;5.718;2022-12-10T09:22:25;5.00;99.90
25504;DHT22;13410;52.114;5.718;2022-12-10T09:25:06;5.00;99.90
25504;DHT22;13410;52.114;5.718;2022-12-10T09:27:36;5.20;99.90
25504;DHT22;13410;52.114;5.718;2022-12-10T09:30:08;5.20;99.90
25504;DHT22;13410;52.114;5.718;2022-12-10T09:32:58;5.30;99.90
25504;DHT22;13410;52.114;5.718;2022-12-10T09:35:26;5.40;99.90
25504;DHT22;13410;52.114;5.718;2022-12-10T09:38:03;5.40;99.90
25504;DHT22;13410;52.114;5.718;2022-12-10T09:40:41;5.40;99.90
25504;DHT22;13410;52.114;5.718;2022-12-10T09:46:08;5.20;99.90
25504;DHT22;13410;52.114;5.718;2022-12-10T09:48:54;5.00;99.90
25504;DHT22;13410;52.114;5.718;2022-12-10T09:51:25;5.20;99.90
25504;DHT22;13410;52.114;5.718;2022-12-10T09:53:56;5.00;99.90
25504;DHT22;13410;52.114;5.718;2022-12-10T09:56:38;5.10;99.90
25504;DHT22;13410;52.114;5.718;2022-12-10T09:59:30;5.20;99.90
25504;DHT22;13410;52.114;5.718;2022-12-10T10:04:45;5.40;99.90
25504;DHT22;13410;52.114;5.718;2022-12-10T10:07:22;5.40;99.90
25504;DHT22;13410;52.114;5.718;2022-12-10T10:09:49;5.50;99.90
25504;DHT22;13410;52.114;5.718;2022-12-10T10:12:21;5.60;99.90
25504;DHT22;13410;52.114;5.718;2022-12-10T10:22:08;5.70;99.90
25504;DHT22;13410;52.114;5.718;2022-12-10T10:24:37;5.60;99.90
25504;DHT22;13410;52.114;5.718;2022-12-10T10:27:17;5.70;99.90
25504;DHT22;13410;52.114;5.718;2022-12-10T10:30:19;5.70;99.90
25504;DHT22;13410;52.114;5.718;2022-12-10T10:33:08;5.60;99.90
25504;DHT22;13410;52.114;5.718;2022-12-10T10:35:54;5.60;99.90
25504;DHT22;13410;52.114;5.718;2022-12-10T10:41:40;5.90;99.90
25504;DHT22;13410;52.114;5.718;2022-12-10T10:44:38;5.90;99.90
25504;DHT22;13410;52.114;5.718;2022-12-10T10:47:35;6.00;99.90
25504;DHT22;13410;52.114;5.718;2022-12-10T10:50:14;6.00;99.90
25504;DHT22;13410;52.114;5.718;2022-12-10T10:52:55;5.90;99.90
25504;DHT22;13410;52.114;5.718;2022-12-10T10:55:34;6.00;99.90
25504;DHT22;13410;52.114;5.718;2022-12-10T10:58:01;6.10;99.90
25504;DHT22;13410;52.114;5.718;2022-12-10T11:00:30;6.00;99.90
25504;DHT22;13410;52.114;5.718;2022-12-10T11:06:23;6.20;99.90
25504;DHT22;13410;52.114;5.718;2022-12-10T11:09:07;6.30;99.90
25504;DHT22;13410;52.114;5.718;2022-12-10T11:12:21;6.40;99.90
25504;DHT22;13410;52.114;5.718;2022-12-10T11:14:57;6.40;99.90
25504;DHT22;13410;52.114;5.718;2022-12-10T11:17:53;6.30;99.90
25504;DHT22;13410;52.114;5.718;2022-12-10T11:20:31;6.50;99.90
25504;DHT22;13410;52.114;5.718;2022-12-10T11:23:03;6.60;99.90
25504;DHT22;13410;52.114;5.718;2022-12-10T11:28:51;6.60;99.90
25504;DHT22;13410;52.114;5.718;2022-12-10T11:36:42;6.30;99.90
25504;DHT22;13410;52.114;5.718;2022-12-10T11:51:03;6.30;99.90
25504;DHT22;13410;52.114;5.718;2022-12-10T11:53:55;6.40;99.90
25504;DHT22;13410;52.114;5.718;2022-12-10T11:56:44;6.20;99.90
25504;DHT22;13410;52.114;5.718;2022-12-10T12:05:48;6.30;99.90
25504;DHT22;13410;52.114;5.718;2022-12-10T12:14:39;6.40;99.90
25504;DHT22;13410;52.114;5.718;2022-12-10T12:17:31;6.50;99.90
25504;DHT22;13410;52.114;5.718;2022-12-10T12:20:32;6.40;99.90
25504;DHT22;13410;52.114;5.718;2022-12-10T12:23:22;6.40;99.90
25504;DHT22;13410;52.114;5.718;2022-12-10T12:26:02;6.30;99.90
25504;DHT22;13410;52.114;5.718;2022-12-10T12:29:05;6.30;99.90
25504;DHT22;13410;52.114;5.718;2022-12-10T12:31:49;6.40;99.90
25504;DHT22;13410;52.114;5.718;2022-12-10T12:35:06;6.20;99.90
25504;DHT22;13410;52.114;5.718;2022-12-10T12:37:44;6.40;99.90
25504;DHT22;13410;52.114;5.718;2022-12-10T12:40:33;6.30;99.90
25504;DHT22;13410;52.114;5.718;2022-12-10T12:43:08;6.30;99.90
25504;DHT22;13410;52.114;5.718;2022-12-10T12:45:42;6.10;99.90
25504;DHT22;13410;52.114;5.718;2022-12-10T12:50:59;6.20;99.90
25504;DHT22;13410;52.114;5.718;2022-12-10T12:53:25;6.10;99.90
25504;DHT22;13410;52.114;5.718;2022-12-10T12:56:05;6.20;99.90
25504;DHT22;13410;52.114;5.718;2022-12-10T13:01:43;6.30;99.90
25504;DHT22;13410;52.114;5.718;2022-12-10T13:04:13;6.30;99.90
25504;DHT22;13410;52.114;5.718;2022-12-10T13:09:51;6.20;99.90
25504;DHT22;13410;52.114;5.718;2022-12-10T13:12:30;6.20;99.90
25504;DHT22;13410;52.114;5.718;2022-12-10T13:15:11;6.20;99.90
25504;DHT22;13410;52.114;5.718;2022-12-10T13:17:38;6.10;99.90
25504;DHT22;13410;52.114;5.718;2022-12-10T13:25:41;6.10;99.90
25504;DHT22;13410;52.114;5.718;2022-12-10T13:28:27;6.00;99.90
25504;DHT22;13410;52.114;5.718;2022-12-10T13:36:27;6.10;99.90
25504;DHT22;13410;52.114;5.718;2022-12-10T13:41:34;6.00;99.90
25504;DHT22;13410;52.114;5.718;2022-12-10T13:44:35;6.10;99.90
25504;DHT22;13410;52.114;5.718;2022-12-10T13:49:55;6.30;99.90
25504;DHT22;13410;52.114;5.718;2022-12-10T13:58:34;6.20;99.90
25504;DHT22;13410;52.114;5.718;2022-12-10T14:01:29;6.30;99.90
25504;DHT22;13410;52.114;5.718;2022-12-10T14:04:10;6.20;99.90
25504;DHT22;13410;52.114;5.718;2022-12-10T14:06:40;6.10;99.90
25504;DHT22;13410;52.114;5.718;2022-12-10T14:11:40;5.90;99.90
25504;DHT22;13410;52.114;5.718;2022-12-10T14:14:12;6.00;99.90
25504;DHT22;13410;52.114;5.718;2022-12-10T14:16:40;6.00;99.90
25504;DHT22;13410;52.114;5.718;2022-12-10T14:19:11;6.20;99.90
25504;DHT22;13410;52.114;5.718;2022-12-10T14:21:38;6.10;99.90
25504;DHT22;13410;52.114;5.718;2022-12-10T14:24:37;6.10;99.90
25504;DHT22;13410;52.114;5.718;2022-12-10T14:27:15;6.20;99.90
25504;DHT22;13410;52.114;5.718;2022-12-10T14:29:51;6.10;99.90
25504;DHT22;13410;52.114;5.718;2022-12-10T14:32:27;6.10;99.90
25504;DHT22;13410;52.114;5.718;2022-12-10T14:34:56;6.10;99.90
25504;DHT22;13410;52.114;5.718;2022-12-10T14:37:31;6.20;99.90
25504;DHT22;13410;52.114;5.718;2022-12-10T14:39:59;6.20;99.90
25504;DHT22;13410;52.114;5.718;2022-12-10T14:42:25;6.20;99.90
25504;DHT22;13410;52.114;5.718;2022-12-10T14:44:59;6.40;99.90
25504;DHT22;13410;52.114;5.718;2022-12-10T14:47:26;6.40;99.90
25504;DHT22;13410;52.114;5.718;2022-12-10T14:49:54;6.30;99.90
25504;DHT22;13410;52.114;5.718;2022-12-10T14:52:30;6.10;99.90
25504;DHT22;13410;52.114;5.718;2022-12-10T14:54:58;6.10;99.90
25504;DHT22;13410;52.114;5.718;2022-12-10T14:57:31;6.10;99.90
25504;DHT22;13410;52.114;5.718;2022-12-10T15:00:04;6.00;99.90
25504;DHT22;13410;52.114;5.718;2022-12-10T15:02:40;5.90;99.90
25504;DHT22;13410;52.114;5.718;2022-12-10T15:05:20;5.90;99.90
25504;DHT22;13410;52.114;5.718;2022-12-10T15:07:56;5.80;99.90
25504;DHT22;13410;52.114;5.718;2022-12-10T15:10:28;5.90;99.90
25504;DHT22;13410;52.114;5.718;2022-12-10T15:12:57;6.00;99.90
25504;DHT22;13410;52.114;5.718;2022-12-10T15:15:25;6.00;99.90
25504;DHT22;13410;52.114;5.718;2022-12-10T15:18:09;6.00;99.90
25504;DHT22;13410;52.114;5.718;2022-12-10T15:26:14;5.90;99.90
25504;DHT22;13410;52.114;5.718;2022-12-10T15:28:41;6.00;99.90
25504;DHT22;13410;52.114;5.718;2022-12-10T15:33:43;6.00;99.90
25504;DHT22;13410;52.114;5.718;2022-12-10T15:38:43;6.00;99.90
25504;DHT22;13410;52.114;5.718;2022-12-10T15:44:14;6.00;99.90
25504;DHT22;13410;52.114;5.718;2022-12-10T15:47:26;6.00;99.90
25504;DHT22;13410;52.114;5.718;2022-12-10T15:49:55;6.00;99.90
25504;DHT22;13410;52.114;5.718;2022-12-10T15:52:27;5.90;99.90
25504;DHT22;13410;52.114;5.718;2022-12-10T15:54:54;6.00;99.90
25504;DHT22;13410;52.114;5.718;2022-12-10T15:57:26;6.10;99.90
25504;DHT22;13410;52.114;5.718;2022-12-10T15:59:54;6.10;99.90
25504;DHT22;13410;52.114;5.718;2022-12-10T16:02:28;6.10;99.90
25504;DHT22;13410;52.114;5.718;2022-12-10T16:04:57;6.20;99.90
25504;DHT22;13410;52.114;5.718;2022-12-10T16:07:22;6.30;99.90
25504;DHT22;13410;52.114;5.718;2022-12-10T16:09:48;6.30;99.90
25504;DHT22;13410;52.114;5.718;2022-12-10T16:12:14;6.30;99.90
25504;DHT22;13410;52.114;5.718;2022-12-10T16:14:51;6.30;99.90
25504;DHT22;13410;52.114;5.718;2022-12-10T16:17:18;6.40;99.90
25504;DHT22;13410;52.114;5.718;2022-12-10T16:19:44;6.30;99.90
25504;DHT22;13410;52.114;5.718;2022-12-10T16:22:09;6.30;99.90
25504;DHT22;13410;52.114;5.718;2022-12-10T16:24:35;6.40;99.90
25504;DHT22;13410;52.114;5.718;2022-12-10T16:27:01;6.40;99.90
25504;DHT22;13410;52.114;5.718;2022-12-10T16:29:27;6.40;99.90
25504;DHT22;13410;52.114;5.718;2022-12-10T16:31:52;6.50;99.90
25504;DHT22;13410;52.114;5.718;2022-12-10T16:34:18;6.50;99.90
25504;DHT22;13410;52.114;5.718;2022-12-10T16:36:43;6.50;99.90
25504;DHT22;13410;52.114;5.718;2022-12-10T16:39:09;6.50;99.90
25504;DHT22;13410;52.114;5.718;2022-12-10T16:41:34;6.30;99.90
25504;DHT22;13410;52.114;5.718;2022-12-10T16:44:00;6.40;99.90
25504;DHT22;13410;52.114;5.718;2022-12-10T16:46:26;6.40;99.90
25504;DHT22;13410;52.114;5.718;2022-12-10T16:48:51;6.40;99.90
25504;DHT22;13410;52.114;5.718;2022-12-10T16:51:27;6.30;99.90
25504;DHT22;13410;52.114;5.718;2022-12-10T16:53:57;6.50;99.90
25504;DHT22;13410;52.114;5.718;2022-12-10T16:56:23;6.40;99.90
25504;DHT22;13410;52.114;5.718;2022-12-10T16:58:49;6.30;99.90
25504;DHT22;13410;52.114;5.718;2022-12-10T17:01:24;6.30;99.90
25504;DHT22;13410;52.114;5.718;2022-12-10T17:03:53;6.50;99.90
25504;DHT22;13410;52.114;5.718;2022-12-10T17:06:21;6.40;99.90
25504;DHT22;13410;52.114;5.718;2022-12-10T17:08:47;6.30;99.90
25504;DHT22;13410;52.114;5.718;2022-12-10T17:11:17;6.20;99.90
25504;DHT22;13410;52.114;5.718;2022-12-10T17:14:03;6.30;99.90
25504;DHT22;13410;52.114;5.718;2022-12-10T17:16:30;6.30;99.90
25504;DHT22;13410;52.114;5.718;2022-12-10T17:18:56;6.40;99.90
25504;DHT22;13410;52.114;5.718;2022-12-10T17:21:22;6.40;99.90
25504;DHT22;13410;52.114;5.718;2022-12-10T17:23:48;6.40;99.90
25504;DHT22;13410;52.114;5.718;2022-12-10T17:26:28;6.20;99.90
25504;DHT22;13410;52.114;5.718;2022-12-10T17:29:00;6.20;99.90
25504;DHT22;13410;52.114;5.718;2022-12-10T17:31:26;6.20;99.90
25504;DHT22;13410;52.114;5.718;2022-12-10T17:33:52;6.30;99.90
25504;DHT22;13410;52.114;5.718;2022-12-10T17:36:17;6.30;99.90
25504;DHT22;13410;52.114;5.718;2022-12-10T17:38:43;6.30;99.90
25504;DHT22;13410;52.114;5.718;2022-12-10T17:41:10;6.30;99.90
25504;DHT22;13410;52.114;5.718;2022-12-10T17:43:36;6.30;99.90
25504;DHT22;13410;52.114;5.718;2022-12-10T17:46:02;6.30;99.90
25504;DHT22;13410;52.114;5.718;2022-12-10T17:48:27;6.30;99.90
25504;DHT22;13410;52.114;5.718;2022-12-10T17:50:53;6.20;99.90
25504;DHT22;13410;52.114;5.718;2022-12-10T17:53:19;6.30;99.90
25504;DHT22;13410;52.114;5.718;2022-12-10T17:55:50;6.20;99.90
25504;DHT22;13410;52.114;5.718;2022-12-10T17:58:17;6.20;99.90
25504;DHT22;13410;52.114;5.718;2022-12-10T18:00:46;6.40;99.90